sensor_id;sensor_type;location;lat;lon;timestamp;P1;durP1;ratioP1;P2;durP2;ratioP2
4810;SDS011;2419;51.276;6.472;2023-08-01T00:00:57;1.20;;;0.90;;
4810;SDS011;2419;51.276;6.472;2023-08-01T00:03:26;0.97;;;0.90;;
4810;SDS011;2419;51.276;6.472;2023-08-01T00:05:54;0.80;;;0.80;;
4810;SDS011;2419;51.276;6.472;2023-08-01T00:08:22;4.50;;;1.03;;
4810;SDS011;2419;51.276;6.472;2023-08-01T00:10:51;1.20;;;0.90;;
4810;SDS011;2419;51.276;6.472;2023-08-01T00:13:19;0.90;;;0.90;;
4810;SDS011;2419;51.276;6.472;2023-08-01T00:15:47;0.87;;;0.70;;
4810;SDS011;2419;51.276;6.472;2023-08-01T00:18:32;0.70;;;0.70;;
4810;SDS011;2419;51.276;6.472;2023-08-01T00:21:00;0.80;;;0.80;;
4810;SDS011;2419;51.276;6.472;2023-08-01T00:23:28;0.90;;;0.90;;
4810;SDS011;2419;51.276;6.472;2023-08-01T00:25:58;0.70;;;0.70;;
4810;SDS011;2419;51.276;6.472;2023-08-01T00:28:26;0.80;;;0.80;;
4810;SDS011;2419;51.276;6.472;2023-08-01T00:31:01;1.00;;;0.87;;
4810;SDS011;2419;51.276;6.472;2023-08-01T00:33:30;0.80;;;0.70;;
4810;SDS011;2419;51.276;6.472;2023-08-01T00:35:58;0.80;;;0.80;;
4810;SDS011;2419;51.276;6.472;2023-08-01T00:38:26;1.47;;;0.90;;
4810;SDS011;2419;51.276;6.472;2023-08-01T00:40:54;0.97;;;0.70;;
4810;SDS011;2419;51.276;6.472;2023-08-01T00:43:23;0.70;;;0.70;;
4810;SDS011;2419;51.276;6.472;2023-08-01T00:45:51;0.80;;;0.70;;
4810;SDS011;2419;51.276;6.472;2023-08-01T00:48:23;0.70;;;0.70;;
4810;SDS011;2419;51.276;6.472;2023-08-01T00:50:51;14.23;;;1.00;;
4810;SDS011;2419;51.276;6.472;2023-08-01T00:53:19;1.80;;;0.97;;
4810;SDS011;2419;51.276;6.472;2023-08-01T00:55:48;0.73;;;0.73;;
4810;SDS011;2419;51.276;6.472;2023-08-01T00:58:17;1.00;;;0.80;;
4810;SDS011;2419;51.276;6.472;2023-08-01T01:00:47;0.80;;;0.80;;
4810;SDS011;2419;51.276;6.472;2023-08-01T01:03:16;1.67;;;1.00;;
4810;SDS011;2419;51.276;6.472;2023-08-01T01:05:47;0.93;;;0.93;;
4810;SDS011;2419;51.276;6.472;2023-08-01T01:08:19;0.93;;;0.93;;
4810;SDS011;2419;51.276;6.472;2023-08-01T01:10:48;1.30;;;1.20;;
4810;SDS011;2419;51.276;6.472;2023-08-01T01:13:16;1.20;;;1.10;;
4810;SDS011;2419;51.276;6.472;2023-08-01T01:15:44;1.50;;;1.40;;
4810;SDS011;2419;51.276;6.472;2023-08-01T01:18:13;1.60;;;1.50;;
4810;SDS011;2419;51.276;6.472;2023-08-01T01:20:42;1.50;;;1.40;;
4810;SDS011;2419;51.276;6.472;2023-08-01T01:23:10;3.40;;;1.13;;
4810;SDS011;2419;51.276;6.472;2023-08-01T01:25:39;1.43;;;1.33;;
4810;SDS011;2419;51.276;6.472;2023-08-01T01:28:08;1.20;;;1.20;;
4810;SDS011;2419;51.276;6.472;2023-08-01T01:30:38;3.90;;;1.50;;
4810;SDS011;2419;51.276;6.472;2023-08-01T01:33:06;1.30;;;1.20;;
4810;SDS011;2419;51.276;6.472;2023-08-01T01:35:36;1.50;;;1.40;;
4810;SDS011;2419;51.276;6.472;2023-08-01T01:38:05;4.90;;;1.90;;
4810;SDS011;2419;51.276;6.472;2023-08-01T01:40:33;1.90;;;1.80;;
4810;SDS011;2419;51.276;6.472;2023-08-01T01:43:01;1.80;;;1.70;;
4810;SDS011;2419;51.276;6.472;2023-08-01T01:45:29;1.77;;;1.67;;
4810;SDS011;2419;51.276;6.472;2023-08-01T01:47:58;2.13;;;1.97;;
4810;SDS011;2419;51.276;6.472;2023-08-01T01:50:26;2.27;;;2.07;;
4810;SDS011;2419;51.276;6.472;2023-08-01T01:52:54;1.70;;;1.60;;
4810;SDS011;2419;51.276;6.472;2023-08-01T01:55:23;3.97;;;2.63;;
4810;SDS011;2419;51.276;6.472;2023-08-01T01:57:51;5.70;;;2.30;;
4810;SDS011;2419;51.276;6.472;2023-08-01T02:00:19;8.30;;;2.17;;
4810;SDS011;2419;51.276;6.472;2023-08-01T02:02:47;4.53;;;2.77;;
4810;SDS011;2419;51.276;6.472;2023-08-01T02:05:15;3.27;;;3.00;;
4810;SDS011;2419;51.276;6.472;2023-08-01T02:07:44;9.97;;;3.90;;
4810;SDS011;2419;51.276;6.472;2023-08-01T02:10:11;6.10;;;3.80;;
4810;SDS011;2419;51.276;6.472;2023-08-01T02:12:41;5.60;;;3.70;;
4810;SDS011;2419;51.276;6.472;2023-08-01T02:15:09;4.83;;;4.10;;
4810;SDS011;2419;51.276;6.472;2023-08-01T02:17:37;4.60;;;3.53;;
4810;SDS011;2419;51.276;6.472;2023-08-01T02:20:06;6.33;;;4.20;;
4810;SDS011;2419;51.276;6.472;2023-08-01T02:22:35;7.47;;;5.13;;
4810;SDS011;2419;51.276;6.472;2023-08-01T02:25:03;7.30;;;5.07;;
4810;SDS011;2419;51.276;6.472;2023-08-01T02:27:31;14.23;;;5.70;;
4810;SDS011;2419;51.276;6.472;2023-08-01T02:30:01;8.23;;;6.13;;
4810;SDS011;2419;51.276;6.472;2023-08-01T02:32:29;10.80;;;6.77;;
4810;SDS011;2419;51.276;6.472;2023-08-01T02:34:57;8.70;;;6.80;;
4810;SDS011;2419;51.276;6.472;2023-08-01T02:37:25;13.33;;;6.40;;
4810;SDS011;2419;51.276;6.472;2023-08-01T02:39:53;11.13;;;8.03;;
4810;SDS011;2419;51.276;6.472;2023-08-01T02:42:21;18.33;;;6.67;;
4810;SDS011;2419;51.276;6.472;2023-08-01T02:44:49;11.50;;;8.20;;
4810;SDS011;2419;51.276;6.472;2023-08-01T02:47:19;7.90;;;6.50;;
4810;SDS011;2419;51.276;6.472;2023-08-01T02:49:47;9.83;;;7.20;;
4810;SDS011;2419;51.276;6.472;2023-08-01T02:52:15;8.40;;;5.93;;
4810;SDS011;2419;51.276;6.472;2023-08-01T02:54:43;12.90;;;7.03;;
4810;SDS011;2419;51.276;6.472;2023-08-01T02:57:11;10.40;;;7.40;;
4810;SDS011;2419;51.276;6.472;2023-08-01T02:59:39;9.10;;;6.27;;
4810;SDS011;2419;51.276;6.472;2023-08-01T03:02:07;12.50;;;7.10;;
4810;SDS011;2419;51.276;6.472;2023-08-01T03:04:36;11.60;;;7.67;;
4810;SDS011;2419;51.276;6.472;2023-08-01T03:07:12;14.30;;;6.90;;
4810;SDS011;2419;51.276;6.472;2023-08-01T03:09:41;14.27;;;7.97;;
4810;SDS011;2419;51.276;6.472;2023-08-01T03:12:10;13.17;;;7.67;;
4810;SDS011;2419;51.276;6.472;2023-08-01T03:14:38;12.03;;;7.47;;
4810;SDS011;2419;51.276;6.472;2023-08-01T03:17:07;20.73;;;8.23;;
4810;SDS011;2419;51.276;6.472;2023-08-01T03:19:37;17.53;;;8.60;;
4810;SDS011;2419;51.276;6.472;2023-08-01T03:22:05;10.50;;;7.50;;
4810;SDS011;2419;51.276;6.472;2023-08-01T03:24:34;13.80;;;7.60;;
4810;SDS011;2419;51.276;6.472;2023-08-01T03:27:02;21.07;;;7.43;;
4810;SDS011;2419;51.276;6.472;2023-08-01T03:29:30;12.27;;;7.20;;
4810;SDS011;2419;51.276;6.472;2023-08-01T03:31:59;13.53;;;7.60;;
4810;SDS011;2419;51.276;6.472;2023-08-01T03:34:28;17.20;;;7.33;;
4810;SDS011;2419;51.276;6.472;2023-08-01T03:36:58;19.00;;;7.90;;
4810;SDS011;2419;51.276;6.472;2023-08-01T03:39:26;10.20;;;6.57;;
4810;SDS011;2419;51.276;6.472;2023-08-01T03:41:54;15.77;;;8.20;;
4810;SDS011;2419;51.276;6.472;2023-08-01T03:44:22;16.53;;;9.63;;
4810;SDS011;2419;51.276;6.472;2023-08-01T03:46:51;14.40;;;7.60;;
4810;SDS011;2419;51.276;6.472;2023-08-01T03:49:20;14.67;;;8.13;;
4810;SDS011;2419;51.276;6.472;2023-08-01T03:51:48;14.80;;;9.30;;
4810;SDS011;2419;51.276;6.472;2023-08-01T03:54:18;15.93;;;9.93;;
4810;SDS011;2419;51.276;6.472;2023-08-01T03:56:46;21.23;;;9.83;;
4810;SDS011;2419;51.276;6.472;2023-08-01T03:59:14;19.87;;;9.70;;
4810;SDS011;2419;51.276;6.472;2023-08-01T04:01:43;20.50;;;11.33;;
4810;SDS011;2419;51.276;6.472;2023-08-01T04:04:11;23.33;;;11.70;;
4810;SDS011;2419;51.276;6.472;2023-08-01T04:06:39;18.93;;;11.13;;
4810;SDS011;2419;51.276;6.472;2023-08-01T04:09:07;22.83;;;12.20;;
4810;SDS011;2419;51.276;6.472;2023-08-01T04:11:37;17.67;;;11.57;;
4810;SDS011;2419;51.276;6.472;2023-08-01T04:14:04;24.83;;;13.30;;
4810;SDS011;2419;51.276;6.472;2023-08-01T04:16:32;21.90;;;12.23;;
4810;SDS011;2419;51.276;6.472;2023-08-01T04:19:00;26.23;;;13.50;;
4810;SDS011;2419;51.276;6.472;2023-08-01T04:21:29;29.07;;;13.03;;
4810;SDS011;2419;51.276;6.472;2023-08-01T04:23:57;23.73;;;13.80;;
4810;SDS011;2419;51.276;6.472;2023-08-01T04:26:25;26.33;;;14.53;;
4810;SDS011;2419;51.276;6.472;2023-08-01T04:28:54;27.40;;;13.03;;
4810;SDS011;2419;51.276;6.472;2023-08-01T04:31:22;18.07;;;12.10;;
4810;SDS011;2419;51.276;6.472;2023-08-01T04:33:50;23.10;;;13.10;;
4810;SDS011;2419;51.276;6.472;2023-08-01T04:36:18;22.63;;;11.90;;
4810;SDS011;2419;51.276;6.472;2023-08-01T04:38:46;29.40;;;11.17;;
4810;SDS011;2419;51.276;6.472;2023-08-01T04:41:14;28.07;;;13.00;;
4810;SDS011;2419;51.276;6.472;2023-08-01T04:43:42;27.73;;;12.90;;
4810;SDS011;2419;51.276;6.472;2023-08-01T04:46:12;21.50;;;12.33;;
4810;SDS011;2419;51.276;6.472;2023-08-01T04:48:40;24.40;;;11.80;;
4810;SDS011;2419;51.276;6.472;2023-08-01T04:51:08;20.53;;;12.30;;
4810;SDS011;2419;51.276;6.472;2023-08-01T04:53:36;19.43;;;11.40;;
4810;SDS011;2419;51.276;6.472;2023-08-01T04:56:05;24.03;;;12.53;;
4810;SDS011;2419;51.276;6.472;2023-08-01T04:58:33;25.00;;;11.90;;
4810;SDS011;2419;51.276;6.472;2023-08-01T05:01:01;22.40;;;11.23;;
4810;SDS011;2419;51.276;6.472;2023-08-01T05:03:30;23.70;;;11.83;;
4810;SDS011;2419;51.276;6.472;2023-08-01T05:05:59;22.03;;;13.00;;
4810;SDS011;2419;51.276;6.472;2023-08-01T05:08:27;16.90;;;10.80;;
4810;SDS011;2419;51.276;6.472;2023-08-01T05:10:55;19.03;;;11.20;;
4810;SDS011;2419;51.276;6.472;2023-08-01T05:13:23;21.80;;;10.80;;
4810;SDS011;2419;51.276;6.472;2023-08-01T05:15:51;17.77;;;10.77;;
4810;SDS011;2419;51.276;6.472;2023-08-01T05:18:19;19.80;;;12.00;;
4810;SDS011;2419;51.276;6.472;2023-08-01T05:20:48;19.67;;;10.30;;
4810;SDS011;2419;51.276;6.472;2023-08-01T05:23:16;16.37;;;10.27;;
4810;SDS011;2419;51.276;6.472;2023-08-01T05:25:44;16.83;;;10.87;;
4810;SDS011;2419;51.276;6.472;2023-08-01T05:28:12;18.30;;;10.77;;
4810;SDS011;2419;51.276;6.472;2023-08-01T05:30:41;18.07;;;10.10;;
4810;SDS011;2419;51.276;6.472;2023-08-01T05:33:09;20.07;;;10.50;;
4810;SDS011;2419;51.276;6.472;2023-08-01T05:35:37;16.10;;;9.40;;
4810;SDS011;2419;51.276;6.472;2023-08-01T05:38:07;24.77;;;10.23;;
4810;SDS011;2419;51.276;6.472;2023-08-01T05:40:35;16.33;;;8.97;;
4810;SDS011;2419;51.276;6.472;2023-08-01T05:43:03;19.33;;;8.77;;
4810;SDS011;2419;51.276;6.472;2023-08-01T05:45:31;14.40;;;8.60;;
4810;SDS011;2419;51.276;6.472;2023-08-01T05:47:59;17.30;;;8.50;;
4810;SDS011;2419;51.276;6.472;2023-08-01T05:50:27;13.87;;;8.37;;
4810;SDS011;2419;51.276;6.472;2023-08-01T05:52:56;14.87;;;8.43;;
4810;SDS011;2419;51.276;6.472;2023-08-01T05:55:25;15.10;;;8.23;;
4810;SDS011;2419;51.276;6.472;2023-08-01T05:57:53;12.73;;;7.87;;
4810;SDS011;2419;51.276;6.472;2023-08-01T06:00:21;14.17;;;7.90;;
4810;SDS011;2419;51.276;6.472;2023-08-01T06:02:49;12.73;;;7.60;;
4810;SDS011;2419;51.276;6.472;2023-08-01T06:05:18;11.50;;;7.73;;
4810;SDS011;2419;51.276;6.472;2023-08-01T06:07:46;14.47;;;8.30;;
4810;SDS011;2419;51.276;6.472;2023-08-01T06:10:14;19.97;;;7.37;;
4810;SDS011;2419;51.276;6.472;2023-08-01T06:12:43;17.93;;;8.13;;
4810;SDS011;2419;51.276;6.472;2023-08-01T06:15:11;11.37;;;7.77;;
4810;SDS011;2419;51.276;6.472;2023-08-01T06:17:39;9.70;;;6.70;;
4810;SDS011;2419;51.276;6.472;2023-08-01T06:20:08;11.63;;;7.03;;
4810;SDS011;2419;51.276;6.472;2023-08-01T06:22:37;9.47;;;6.37;;
4810;SDS011;2419;51.276;6.472;2023-08-01T06:25:05;15.13;;;7.13;;
4810;SDS011;2419;51.276;6.472;2023-08-01T06:27:34;8.43;;;5.70;;
4810;SDS011;2419;51.276;6.472;2023-08-01T06:30:03;14.97;;;7.00;;
4810;SDS011;2419;51.276;6.472;2023-08-01T06:32:32;10.37;;;5.80;;
4810;SDS011;2419;51.276;6.472;2023-08-01T06:35:00;13.10;;;6.00;;
4810;SDS011;2419;51.276;6.472;2023-08-01T06:37:28;10.20;;;5.43;;
4810;SDS011;2419;51.276;6.472;2023-08-01T06:39:57;13.63;;;6.07;;
4810;SDS011;2419;51.276;6.472;2023-08-01T06:42:25;11.40;;;6.40;;
4810;SDS011;2419;51.276;6.472;2023-08-01T06:44:55;13.57;;;6.73;;
4810;SDS011;2419;51.276;6.472;2023-08-01T06:47:25;12.37;;;6.70;;
4810;SDS011;2419;51.276;6.472;2023-08-01T06:49:53;12.20;;;5.73;;
4810;SDS011;2419;51.276;6.472;2023-08-01T06:52:22;10.70;;;6.40;;
4810;SDS011;2419;51.276;6.472;2023-08-01T06:54:50;12.93;;;7.37;;
4810;SDS011;2419;51.276;6.472;2023-08-01T06:57:18;7.90;;;5.83;;
4810;SDS011;2419;51.276;6.472;2023-08-01T06:59:46;8.13;;;5.27;;
4810;SDS011;2419;51.276;6.472;2023-08-01T07:02:14;18.97;;;6.97;;
4810;SDS011;2419;51.276;6.472;2023-08-01T07:04:44;15.27;;;6.13;;
4810;SDS011;2419;51.276;6.472;2023-08-01T07:07:12;15.30;;;6.20;;
4810;SDS011;2419;51.276;6.472;2023-08-01T07:09:40;17.03;;;6.20;;
4810;SDS011;2419;51.276;6.472;2023-08-01T07:12:08;11.87;;;6.57;;
4810;SDS011;2419;51.276;6.472;2023-08-01T07:14:36;11.23;;;6.20;;
4810;SDS011;2419;51.276;6.472;2023-08-01T07:17:04;12.00;;;6.40;;
4810;SDS011;2419;51.276;6.472;2023-08-01T07:19:32;15.50;;;6.57;;
4810;SDS011;2419;51.276;6.472;2023-08-01T07:22:02;9.07;;;6.30;;
4810;SDS011;2419;51.276;6.472;2023-08-01T07:24:30;12.90;;;6.07;;
4810;SDS011;2419;51.276;6.472;2023-08-01T07:26:58;11.60;;;5.77;;
4810;SDS011;2419;51.276;6.472;2023-08-01T07:29:26;10.13;;;6.37;;
4810;SDS011;2419;51.276;6.472;2023-08-01T07:31:54;12.80;;;6.53;;
4810;SDS011;2419;51.276;6.472;2023-08-01T07:34:23;12.03;;;6.23;;
4810;SDS011;2419;51.276;6.472;2023-08-01T07:36:51;9.70;;;5.43;;
4810;SDS011;2419;51.276;6.472;2023-08-01T07:39:20;8.37;;;5.60;;
4810;SDS011;2419;51.276;6.472;2023-08-01T07:41:48;16.67;;;6.10;;
4810;SDS011;2419;51.276;6.472;2023-08-01T07:44:16;10.70;;;5.37;;
4810;SDS011;2419;51.276;6.472;2023-08-01T07:46:44;11.80;;;6.07;;
4810;SDS011;2419;51.276;6.472;2023-08-01T07:49:12;10.80;;;5.57;;
4810;SDS011;2419;51.276;6.472;2023-08-01T07:51:40;8.77;;;5.30;;
4810;SDS011;2419;51.276;6.472;2023-08-01T07:54:08;18.33;;;5.93;;
4810;SDS011;2419;51.276;6.472;2023-08-01T07:56:38;9.30;;;4.80;;
4810;SDS011;2419;51.276;6.472;2023-08-01T07:59:10;14.30;;;4.90;;
4810;SDS011;2419;51.276;6.472;2023-08-01T08:01:38;8.90;;;5.10;;
4810;SDS011;2419;51.276;6.472;2023-08-01T08:04:06;8.00;;;4.57;;
4810;SDS011;2419;51.276;6.472;2023-08-01T08:06:35;11.93;;;4.87;;
4810;SDS011;2419;51.276;6.472;2023-08-01T08:09:04;9.20;;;4.73;;
4810;SDS011;2419;51.276;6.472;2023-08-01T08:11:32;14.13;;;5.10;;
4810;SDS011;2419;51.276;6.472;2023-08-01T08:14:02;14.40;;;5.00;;
4810;SDS011;2419;51.276;6.472;2023-08-01T08:16:30;11.83;;;5.27;;
4810;SDS011;2419;51.276;6.472;2023-08-01T08:18:58;11.73;;;4.90;;
4810;SDS011;2419;51.276;6.472;2023-08-01T08:21:26;10.90;;;5.17;;
4810;SDS011;2419;51.276;6.472;2023-08-01T08:23:54;15.40;;;4.60;;
4810;SDS011;2419;51.276;6.472;2023-08-01T08:26:22;8.87;;;5.10;;
4810;SDS011;2419;51.276;6.472;2023-08-01T08:28:51;9.83;;;4.80;;
4810;SDS011;2419;51.276;6.472;2023-08-01T08:31:20;7.60;;;5.03;;
4810;SDS011;2419;51.276;6.472;2023-08-01T08:33:48;14.90;;;5.00;;
4810;SDS011;2419;51.276;6.472;2023-08-01T08:36:16;10.47;;;5.23;;
4810;SDS011;2419;51.276;6.472;2023-08-01T08:38:44;6.03;;;4.33;;
4810;SDS011;2419;51.276;6.472;2023-08-01T08:41:13;6.50;;;4.70;;
4810;SDS011;2419;51.276;6.472;2023-08-01T08:43:47;8.10;;;4.47;;
4810;SDS011;2419;51.276;6.472;2023-08-01T08:46:16;9.03;;;4.00;;
4810;SDS011;2419;51.276;6.472;2023-08-01T08:48:45;7.20;;;4.60;;
4810;SDS011;2419;51.276;6.472;2023-08-01T08:51:14;10.73;;;4.70;;
4810;SDS011;2419;51.276;6.472;2023-08-01T08:53:43;9.47;;;4.10;;
4810;SDS011;2419;51.276;6.472;2023-08-01T08:56:13;5.43;;;3.40;;
4810;SDS011;2419;51.276;6.472;2023-08-01T08:58:42;10.47;;;4.40;;
4810;SDS011;2419;51.276;6.472;2023-08-01T09:01:13;7.00;;;4.37;;
4810;SDS011;2419;51.276;6.472;2023-08-01T09:03:41;6.80;;;4.30;;
4810;SDS011;2419;51.276;6.472;2023-08-01T09:06:13;12.67;;;4.37;;
4810;SDS011;2419;51.276;6.472;2023-08-01T09:08:50;7.97;;;4.40;;
4810;SDS011;2419;51.276;6.472;2023-08-01T09:11:22;7.30;;;3.47;;
4810;SDS011;2419;51.276;6.472;2023-08-01T09:13:51;9.57;;;4.87;;
4810;SDS011;2419;51.276;6.472;2023-08-01T09:16:20;10.87;;;4.23;;
4810;SDS011;2419;51.276;6.472;2023-08-01T09:18:49;11.80;;;4.70;;
4810;SDS011;2419;51.276;6.472;2023-08-01T09:21:19;12.93;;;4.47;;
4810;SDS011;2419;51.276;6.472;2023-08-01T09:23:48;8.00;;;4.23;;
4810;SDS011;2419;51.276;6.472;2023-08-01T09:26:16;8.57;;;4.73;;
4810;SDS011;2419;51.276;6.472;2023-08-01T09:28:54;6.90;;;4.50;;
4810;SDS011;2419;51.276;6.472;2023-08-01T09:31:25;6.90;;;4.10;;
4810;SDS011;2419;51.276;6.472;2023-08-01T09:33:57;9.57;;;4.13;;
4810;SDS011;2419;51.276;6.472;2023-08-01T09:36:27;7.63;;;3.90;;
4810;SDS011;2419;51.276;6.472;2023-08-01T09:38:57;7.20;;;4.07;;
4810;SDS011;2419;51.276;6.472;2023-08-01T09:41:26;6.60;;;3.63;;
4810;SDS011;2419;51.276;6.472;2023-08-01T09:43:54;9.60;;;4.00;;
4810;SDS011;2419;51.276;6.472;2023-08-01T09:46:22;9.23;;;3.20;;
4810;SDS011;2419;51.276;6.472;2023-08-01T09:48:50;8.73;;;3.67;;
4810;SDS011;2419;51.276;6.472;2023-08-01T09:51:22;7.43;;;3.10;;
4810;SDS011;2419;51.276;6.472;2023-08-01T09:53:52;8.40;;;4.60;;
4810;SDS011;2419;51.276;6.472;2023-08-01T09:56:23;8.40;;;3.30;;
4810;SDS011;2419;51.276;6.472;2023-08-01T09:58:52;8.23;;;3.67;;
4810;SDS011;2419;51.276;6.472;2023-08-01T10:01:22;8.97;;;3.50;;
4810;SDS011;2419;51.276;6.472;2023-08-01T10:03:52;5.57;;;3.27;;
4810;SDS011;2419;51.276;6.472;2023-08-01T10:06:22;9.73;;;3.87;;
4810;SDS011;2419;51.276;6.472;2023-08-01T10:08:52;6.83;;;4.30;;
4810;SDS011;2419;51.276;6.472;2023-08-01T10:11:22;6.30;;;3.70;;
4810;SDS011;2419;51.276;6.472;2023-08-01T10:13:50;5.97;;;2.93;;
4810;SDS011;2419;51.276;6.472;2023-08-01T10:16:18;6.00;;;3.47;;
4810;SDS011;2419;51.276;6.472;2023-08-01T10:18:46;6.30;;;3.30;;
4810;SDS011;2419;51.276;6.472;2023-08-01T10:21:15;10.07;;;3.63;;
4810;SDS011;2419;51.276;6.472;2023-08-01T10:23:44;7.07;;;3.40;;
4810;SDS011;2419;51.276;6.472;2023-08-01T10:26:14;8.80;;;4.27;;
4810;SDS011;2419;51.276;6.472;2023-08-01T10:28:49;5.57;;;3.40;;
4810;SDS011;2419;51.276;6.472;2023-08-01T10:31:19;6.13;;;3.03;;
4810;SDS011;2419;51.276;6.472;2023-08-01T10:33:48;7.00;;;3.90;;
4810;SDS011;2419;51.276;6.472;2023-08-01T10:36:20;8.40;;;3.50;;
4810;SDS011;2419;51.276;6.472;2023-08-01T10:38:50;5.90;;;3.00;;
4810;SDS011;2419;51.276;6.472;2023-08-01T10:41:25;10.30;;;3.33;;
4810;SDS011;2419;51.276;6.472;2023-08-01T10:44:04;12.63;;;2.93;;
4810;SDS011;2419;51.276;6.472;2023-08-01T10:46:45;9.80;;;3.50;;
4810;SDS011;2419;51.276;6.472;2023-08-01T10:49:15;11.23;;;2.90;;
4810;SDS011;2419;51.276;6.472;2023-08-01T10:51:43;3.13;;;2.83;;
4810;SDS011;2419;51.276;6.472;2023-08-01T10:54:19;6.10;;;4.63;;
4810;SDS011;2419;51.276;6.472;2023-08-01T10:56:50;4.57;;;2.93;;
4810;SDS011;2419;51.276;6.472;2023-08-01T10:59:19;7.37;;;2.97;;
4810;SDS011;2419;51.276;6.472;2023-08-01T11:01:48;6.00;;;3.20;;
4810;SDS011;2419;51.276;6.472;2023-08-01T11:04:17;4.00;;;2.97;;
4810;SDS011;2419;51.276;6.472;2023-08-01T11:06:47;5.10;;;3.10;;
4810;SDS011;2419;51.276;6.472;2023-08-01T11:09:17;5.27;;;2.40;;
4810;SDS011;2419;51.276;6.472;2023-08-01T11:11:47;4.60;;;2.53;;
4810;SDS011;2419;51.276;6.472;2023-08-01T11:14:19;2.93;;;2.10;;
4810;SDS011;2419;51.276;6.472;2023-08-01T11:16:48;2.77;;;2.30;;
4810;SDS011;2419;51.276;6.472;2023-08-01T11:19:18;4.53;;;2.30;;
4810;SDS011;2419;51.276;6.472;2023-08-01T11:21:47;3.33;;;2.40;;
4810;SDS011;2419;51.276;6.472;2023-08-01T11:24:16;5.50;;;2.30;;
4810;SDS011;2419;51.276;6.472;2023-08-01T11:26:45;6.40;;;2.93;;
4810;SDS011;2419;51.276;6.472;2023-08-01T11:29:16;4.37;;;2.67;;
4810;SDS011;2419;51.276;6.472;2023-08-01T11:31:52;2.73;;;2.43;;
4810;SDS011;2419;51.276;6.472;2023-08-01T11:34:21;4.10;;;3.30;;
4810;SDS011;2419;51.276;6.472;2023-08-01T11:36:49;4.17;;;2.40;;
4810;SDS011;2419;51.276;6.472;2023-08-01T11:39:18;4.07;;;2.10;;
4810;SDS011;2419;51.276;6.472;2023-08-01T11:41:48;3.30;;;2.00;;
4810;SDS011;2419;51.276;6.472;2023-08-01T11:44:18;3.43;;;1.70;;
4810;SDS011;2419;51.276;6.472;2023-08-01T11:46:51;3.10;;;2.00;;
4810;SDS011;2419;51.276;6.472;2023-08-01T11:49:19;2.63;;;2.10;;
4810;SDS011;2419;51.276;6.472;2023-08-01T11:51:47;3.10;;;1.90;;
4810;SDS011;2419;51.276;6.472;2023-08-01T11:54:15;4.70;;;2.20;;
4810;SDS011;2419;51.276;6.472;2023-08-01T11:56:44;4.50;;;1.83;;
4810;SDS011;2419;51.276;6.472;2023-08-01T11:59:12;3.63;;;1.87;;
4810;SDS011;2419;51.276;6.472;2023-08-01T12:01:43;5.70;;;2.10;;
4810;SDS011;2419;51.276;6.472;2023-08-01T12:04:23;1.87;;;1.37;;
4810;SDS011;2419;51.276;6.472;2023-08-01T12:06:52;2.13;;;1.60;;
4810;SDS011;2419;51.276;6.472;2023-08-01T12:09:20;5.97;;;1.87;;
4810;SDS011;2419;51.276;6.472;2023-08-01T12:11:57;2.00;;;1.70;;
4810;SDS011;2419;51.276;6.472;2023-08-01T12:14:26;3.63;;;1.63;;
4810;SDS011;2419;51.276;6.472;2023-08-01T12:16:56;4.87;;;2.00;;
4810;SDS011;2419;51.276;6.472;2023-08-01T12:19:24;3.03;;;1.90;;
4810;SDS011;2419;51.276;6.472;2023-08-01T12:21:52;4.80;;;1.90;;
4810;SDS011;2419;51.276;6.472;2023-08-01T12:24:20;2.83;;;2.20;;
4810;SDS011;2419;51.276;6.472;2023-08-01T12:26:48;8.83;;;2.27;;
4810;SDS011;2419;51.276;6.472;2023-08-01T12:29:17;2.30;;;1.70;;
4810;SDS011;2419;51.276;6.472;2023-08-01T12:31:45;3.63;;;1.77;;
4810;SDS011;2419;51.276;6.472;2023-08-01T12:34:14;5.60;;;2.00;;
4810;SDS011;2419;51.276;6.472;2023-08-01T12:36:43;3.83;;;2.07;;
4810;SDS011;2419;51.276;6.472;2023-08-01T12:39:11;4.83;;;2.10;;
4810;SDS011;2419;51.276;6.472;2023-08-01T12:41:39;2.70;;;1.77;;
4810;SDS011;2419;51.276;6.472;2023-08-01T12:44:07;7.17;;;2.30;;
4810;SDS011;2419;51.276;6.472;2023-08-01T12:46:35;5.03;;;2.10;;
4810;SDS011;2419;51.276;6.472;2023-08-01T12:49:03;4.20;;;2.07;;
4810;SDS011;2419;51.276;6.472;2023-08-01T12:51:32;2.30;;;1.70;;
4810;SDS011;2419;51.276;6.472;2023-08-01T12:54:00;5.80;;;2.57;;
4810;SDS011;2419;51.276;6.472;2023-08-01T12:56:28;2.87;;;1.80;;
4810;SDS011;2419;51.276;6.472;2023-08-01T12:58:56;5.33;;;2.17;;
4810;SDS011;2419;51.276;6.472;2023-08-01T13:01:25;5.43;;;1.93;;
4810;SDS011;2419;51.276;6.472;2023-08-01T13:03:53;10.60;;;2.13;;
4810;SDS011;2419;51.276;6.472;2023-08-01T13:06:21;3.97;;;1.90;;
4810;SDS011;2419;51.276;6.472;2023-08-01T13:08:50;6.60;;;2.70;;
4810;SDS011;2419;51.276;6.472;2023-08-01T13:11:18;8.13;;;1.77;;
4810;SDS011;2419;51.276;6.472;2023-08-01T13:13:46;4.53;;;2.20;;
4810;SDS011;2419;51.276;6.472;2023-08-01T13:16:14;4.20;;;2.17;;
4810;SDS011;2419;51.276;6.472;2023-08-01T13:18:42;5.63;;;2.50;;
4810;SDS011;2419;51.276;6.472;2023-08-01T13:21:12;6.20;;;2.53;;
4810;SDS011;2419;51.276;6.472;2023-08-01T13:23:40;2.10;;;1.87;;
4810;SDS011;2419;51.276;6.472;2023-08-01T13:26:12;3.57;;;2.00;;
4810;SDS011;2419;51.276;6.472;2023-08-01T13:28:40;4.27;;;1.70;;
4810;SDS011;2419;51.276;6.472;2023-08-01T13:31:08;4.80;;;2.00;;
4810;SDS011;2419;51.276;6.472;2023-08-01T13:33:36;3.97;;;1.40;;
4810;SDS011;2419;51.276;6.472;2023-08-01T13:36:04;3.83;;;1.90;;
4810;SDS011;2419;51.276;6.472;2023-08-01T13:38:33;2.87;;;1.63;;
4810;SDS011;2419;51.276;6.472;2023-08-01T13:41:01;5.63;;;1.90;;
4810;SDS011;2419;51.276;6.472;2023-08-01T13:43:31;3.03;;;1.90;;
4810;SDS011;2419;51.276;6.472;2023-08-01T13:45:59;4.70;;;2.23;;
4810;SDS011;2419;51.276;6.472;2023-08-01T13:48:30;1.53;;;1.43;;
4810;SDS011;2419;51.276;6.472;2023-08-01T13:50:58;2.73;;;1.90;;
4810;SDS011;2419;51.276;6.472;2023-08-01T13:53:26;5.47;;;2.17;;
4810;SDS011;2419;51.276;6.472;2023-08-01T13:55:55;4.57;;;1.70;;
4810;SDS011;2419;51.276;6.472;2023-08-01T13:58:23;5.93;;;1.90;;
4810;SDS011;2419;51.276;6.472;2023-08-01T14:00:52;8.40;;;2.20;;
4810;SDS011;2419;51.276;6.472;2023-08-01T14:03:20;3.50;;;2.03;;
4810;SDS011;2419;51.276;6.472;2023-08-01T14:05:48;4.30;;;1.97;;
4810;SDS011;2419;51.276;6.472;2023-08-01T14:08:16;5.13;;;1.80;;
4810;SDS011;2419;51.276;6.472;2023-08-01T14:10:44;3.67;;;1.87;;
4810;SDS011;2419;51.276;6.472;2023-08-01T14:13:12;6.10;;;2.43;;
4810;SDS011;2419;51.276;6.472;2023-08-01T14:15:40;2.40;;;1.67;;
4810;SDS011;2419;51.276;6.472;2023-08-01T14:18:10;3.70;;;2.00;;
4810;SDS011;2419;51.276;6.472;2023-08-01T14:20:38;8.37;;;2.20;;
4810;SDS011;2419;51.276;6.472;2023-08-01T14:23:06;4.13;;;1.90;;
4810;SDS011;2419;51.276;6.472;2023-08-01T14:25:35;6.37;;;1.73;;
4810;SDS011;2419;51.276;6.472;2023-08-01T14:28:03;2.50;;;1.90;;
4810;SDS011;2419;51.276;6.472;2023-08-01T14:30:32;6.63;;;2.20;;
4810;SDS011;2419;51.276;6.472;2023-08-01T14:33:00;3.93;;;1.97;;
4810;SDS011;2419;51.276;6.472;2023-08-01T14:35:30;2.63;;;1.83;;
4810;SDS011;2419;51.276;6.472;2023-08-01T14:37:58;5.57;;;1.83;;
4810;SDS011;2419;51.276;6.472;2023-08-01T14:40:26;4.50;;;2.23;;
4810;SDS011;2419;51.276;6.472;2023-08-01T14:42:54;4.03;;;1.90;;
4810;SDS011;2419;51.276;6.472;2023-08-01T14:45:23;4.33;;;2.10;;
4810;SDS011;2419;51.276;6.472;2023-08-01T14:47:51;4.57;;;1.90;;
4810;SDS011;2419;51.276;6.472;2023-08-01T14:50:19;4.97;;;2.03;;
4810;SDS011;2419;51.276;6.472;2023-08-01T14:52:49;7.23;;;2.30;;
4810;SDS011;2419;51.276;6.472;2023-08-01T14:55:17;6.37;;;2.17;;
4810;SDS011;2419;51.276;6.472;2023-08-01T14:57:46;2.17;;;1.47;;
4810;SDS011;2419;51.276;6.472;2023-08-01T15:00:14;5.20;;;1.87;;
4810;SDS011;2419;51.276;6.472;2023-08-01T15:02:43;3.70;;;1.93;;
4810;SDS011;2419;51.276;6.472;2023-08-01T15:05:11;5.93;;;2.20;;
4810;SDS011;2419;51.276;6.472;2023-08-01T15:07:40;2.23;;;1.40;;
4810;SDS011;2419;51.276;6.472;2023-08-01T15:10:10;7.50;;;1.80;;
4810;SDS011;2419;51.276;6.472;2023-08-01T15:12:38;3.10;;;1.50;;
4810;SDS011;2419;51.276;6.472;2023-08-01T15:15:07;6.90;;;2.23;;
4810;SDS011;2419;51.276;6.472;2023-08-01T15:17:36;3.73;;;1.60;;